Terminal Aerodrome Forecast
Issued by NWS Bismarck, ND

Home | Current Version | Previous Version | Graphics & Text | Print | Product List | Glossary On
Versions: 1 2 3 4 5 6 7 8 9 10 11 12 13 14 15 16 17 18 19
000
FTUS43 KBIS 172307 AAA
TAFISN
TAF AMD
KISN 172307Z 1723/1818 33012KT P6SM SCT100
     FM180000 33014KT P6SM VCTS SCT090CB SCT250
     FM180200 35009KT P6SM SCT250
     FM180500 34005KT P6SM FEW250
     FM181400 28004KT P6SM SKC=

USA.gov is the U.S. government's official web portal to all federal, state and local government web resources and services.